Time;durP1;ratioP1;P1;durP2;ratioP2;P2;SDS_P1;SDS_P2;PMS_P1;PMS_P2;Temp;Humidity;BMP_temperature;BMP_pressure;BME280_temperature;BME280_humidity;BME280_pressure;Samples;Min_cycle;Max_cycle;Signal;HPM_P1;HPM_P2
2022/06/16 00:01:46;;;;;;;7.28;4.00;;;;;;;13.50;64.10;99819.09;1660308;86;21037;-75
2022/06/16 00:04:14;;;;;;;8.10;3.83;;;;;;;13.49;63.88;99821.36;1660334;86;21120;-75
2022/06/16 00:06:42;;;;;;;10.82;4.47;;;;;;;13.43;63.93;99818.52;1660318;86;21150;-75
2022/06/16 00:09:09;;;;;;;7.75;4.22;;;;;;;13.42;63.85;99821.22;1660267;86;22125;-75
2022/06/16 00:11:35;;;;;;;8.45;4.20;;;;;;;13.38;64.08;99829.27;1660202;86;21040;-75
2022/06/16 00:14:04;;;;;;;8.40;4.35;;;;;;;13.34;64.24;99826.34;1660157;86;21104;-74
2022/06/16 00:16:31;;;;;;;6.92;4.50;;;;;;;13.30;64.45;99827.38;1660299;86;21602;-75
2022/06/16 00:18:59;;;;;;;5.50;3.95;;;;;;;13.27;64.40;99826.17;1660336;86;21789;-75
2022/06/16 00:21:26;;;;;;;8.45;4.92;;;;;;;13.23;64.72;99821.95;1660344;86;21171;-75
2022/06/16 00:23:53;;;;;;;11.90;4.78;;;;;;;13.18;64.95;99814.67;1660181;86;21111;-74
2022/06/16 00:26:23;;;;;;;5.90;3.75;;;;;;;13.15;65.05;99816.95;1660485;86;21167;-75
2022/06/16 00:28:50;;;;;;;6.42;4.00;;;;;;;13.14;65.16;99817.02;1660260;86;22276;-75
2022/06/16 00:31:19;;;;;;;7.87;3.87;;;;;;;13.10;65.38;99816.28;1660696;86;21110;-75
2022/06/16 00:33:47;;;;;;;3.98;3.15;;;;;;;13.06;65.52;99815.99;1660175;86;21611;-75
2022/06/16 00:36:14;;;;;;;5.75;3.35;;;;;;;13.04;65.61;99818.31;1670163;85;21123;-75
2022/06/16 00:38:42;;;;;;;5.25;3.20;;;;;;;13.00;65.73;99815.79;1670213;85;21187;-76
2022/06/16 00:41:09;;;;;;;5.50;3.50;;;;;;;12.98;65.80;99826.88;1670261;85;21056;-75
2022/06/16 00:43:37;;;;;;;9.88;3.77;;;;;;;12.94;65.82;99829.70;1670216;85;21156;-75
2022/06/16 00:46:06;;;;;;;5.78;3.62;;;;;;;12.91;65.80;99825.84;1670050;85;21088;-75
2022/06/16 00:48:44;;;;;;;4.83;3.10;;;;;;;12.88;65.85;99820.25;1670610;85;21155;-74
2022/06/16 00:51:39;;;;;;;7.00;4.22;;;;;;;12.87;65.98;99825.11;1670147;85;21119;-74
2022/06/16 00:54:25;;;;;;;8.63;3.93;;;;;;;12.82;66.05;99828.39;1671066;85;21071;-74
2022/06/16 00:56:53;;;;;;;7.42;4.58;;;;;;;12.77;66.18;99833.00;1669601;85;21992;-74
2022/06/16 00:59:20;;;;;;;6.75;4.33;;;;;;;12.72;66.42;99829.67;1629159;87;21026;-75
2022/06/16 01:01:48;;;;;;;7.08;4.65;;;;;;;12.68;66.44;99833.37;1642969;87;21077;-75
2022/06/16 01:07:05;;;;;;;9.13;4.53;;;;;;;12.57;66.84;99834.61;1643367;87;21077;-74
2022/06/16 01:09:33;;;;;;;6.72;4.20;;;;;;;12.54;67.21;99837.39;1672641;85;21129;-74
2022/06/16 01:15:46;;;;;;;7.90;3.92;;;;;;;12.52;67.56;99835.23;1665119;86;21077;-75
2022/06/16 01:18:41;;;;;;;10.68;4.35;;;;;;;12.49;67.73;99830.10;1664959;86;21532;-75
2022/06/16 01:21:34;;;;;;;7.33;3.90;;;;;;;12.49;67.69;99829.22;1665543;86;21038;-74
2022/06/16 01:24:19;;;;;;;6.90;3.93;;;;;;;12.48;67.66;99825.73;1665267;86;21304;-74
2022/06/16 01:27:04;;;;;;;12.95;4.65;;;;;;;12.40;67.67;99822.52;1665235;86;21506;-75
2022/06/16 01:29:55;;;;;;;17.20;5.33;;;;;;;12.40;67.67;99822.52;1664921;86;21077;-75
2022/06/16 01:32:30;;;;;;;8.50;4.75;;;;;;;12.37;68.08;99824.83;1665189;86;21145;-74
2022/06/16 01:35:09;;;;;;;7.25;4.10;;;;;;;12.34;68.44;99816.13;1664978;86;21055;-74
2022/06/16 01:37:56;;;;;;;14.85;4.45;;;;;;;12.30;68.69;99815.39;1665030;86;21168;-75
2022/06/16 01:40:34;;;;;;;6.17;3.98;;;;;;;12.31;68.64;99814.95;1674923;84;21590;-75
2022/06/16 01:43:16;;;;;;;10.28;4.35;;;;;;;12.29;68.67;99820.72;1693027;84;21145;-75
2022/06/16 01:46:05;;;;;;;12.55;4.65;;;;;;;12.28;68.78;99816.38;1692863;84;21023;-76
2022/06/16 01:48:32;;;;;;;10.28;4.17;;;;;;;12.26;68.80;99818.60;1689248;84;21113;-75
2022/06/16 01:51:11;;;;;;;13.53;5.25;;;;;;;12.28;68.69;99816.38;1693148;84;21104;-75
2022/06/16 01:53:59;;;;;;;13.80;4.90;;;;;;;12.30;68.77;99818.03;1692928;84;21580;-74
2022/06/16 01:56:46;;;;;;;8.15;4.35;;;;;;;12.29;69.02;99814.12;1688856;84;21083;-75
2022/06/16 01:59:20;;;;;;;16.23;7.40;;;;;;;12.29;69.08;99815.44;1692993;84;21157;-74
2022/06/16 02:01:50;;;;;;;21.75;9.48;;;;;;;12.29;69.32;99820.72;1693278;84;21093;-75
2022/06/16 02:04:24;;;;;;;9.70;5.83;;;;;;;12.26;69.62;99825.20;1688451;84;21263;-75
2022/06/16 02:06:54;;;;;;;11.10;4.28;;;;;;;12.25;69.82;99825.25;1693086;84;21097;-76
2022/06/16 02:09:27;;;;;;;13.95;4.58;;;;;;;12.19;70.03;99826.34;1692806;84;21161;-74
2022/06/16 02:11:56;;;;;;;7.72;3.62;;;;;;;12.17;70.08;99822.91;1666735;84;21067;-75
2022/06/16 02:14:37;;;;;;;6.10;3.60;;;;;;;12.20;70.10;99829.38;1692834;84;21034;-75
2022/06/16 02:17:12;;;;;;;4.65;2.98;;;;;;;12.24;70.10;99828.36;1693075;83;21990;-75
2022/06/16 02:19:39;;;;;;;6.92;3.10;;;;;;;12.29;70.08;99828.63;1688653;84;21073;-75
2022/06/16 02:22:07;;;;;;;4.62;3.77;;;;;;;12.32;70.24;99837.30;1693062;84;21665;-75
2022/06/16 02:24:35;;;;;;;5.58;3.30;;;;;;;12.36;70.33;99841.56;1693087;84;21086;-74
2022/06/16 02:27:03;;;;;;;5.30;3.25;;;;;;;12.39;70.44;99839.25;1692976;84;21018;-75
2022/06/16 02:29:37;;;;;;;3.92;3.20;;;;;;;12.40;70.70;99842.30;1693166;84;21134;-75
2022/06/16 02:32:41;;;;;;;10.78;3.58;;;;;;;12.41;70.87;99845.36;1692712;84;21043;-76
2022/06/16 02:35:20;;;;;;;10.70;3.95;;;;;;;12.42;71.02;99853.66;1685743;84;21518;-75
2022/06/16 02:37:54;;;;;;;10.88;3.77;;;;;;;12.43;71.05;99848.33;1671452;85;21570;-74
2022/06/16 02:40:59;;;;;;;7.15;4.17;;;;;;;12.50;70.94;99852.06;1671850;85;21066;-74
2022/06/16 02:44:06;;;;;;;6.87;3.75;;;;;;;12.54;70.89;99847.95;1671332;85;21177;-75
2022/06/16 02:47:15;;;;;;;10.55;4.28;;;;;;;12.61;70.76;99847.25;1671744;85;21122;-74
2022/06/16 02:50:00;;;;;;;6.03;3.70;;;;;;;12.67;70.49;99843.52;1671404;85;21109;-74
2022/06/16 02:52:39;;;;;;;10.25;4.03;;;;;;;12.74;70.36;99852.47;1671934;85;21641;-75
2022/06/16 02:55:18;;;;;;;9.40;3.92;;;;;;;12.79;70.22;99846.55;1671223;85;21085;-75
2022/06/16 02:57:54;;;;;;;6.42;3.65;;;;;;;12.85;70.20;99848.09;1671874;85;21105;-74
2022/06/16 03:00:28;;;;;;;7.78;3.87;;;;;;;12.90;70.18;99848.77;1671893;85;22157;-74
2022/06/16 03:02:55;;;;;;;7.25;3.65;;;;;;;12.94;70.21;99853.00;1671837;85;21170;-76
2022/06/16 03:05:24;;;;;;;9.10;3.70;;;;;;;12.96;70.20;99857.78;1671410;85;21074;-75
2022/06/16 03:07:52;;;;;;;5.22;3.33;;;;;;;12.97;70.30;99850.71;1672916;84;21675;-75
2022/06/16 03:13:06;;;;;;;4.92;3.20;;;;;;;13.05;70.55;99858.34;1661265;86;21146;-75
2022/06/16 03:15:34;;;;;;;7.87;3.37;;;;;;;13.08;70.74;99851.16;1661251;86;21585;-75
2022/06/16 03:18:01;;;;;;;4.75;3.30;;;;;;;13.14;70.70;99857.97;1661273;86;21597;-74
2022/06/16 03:20:28;;;;;;;6.00;3.27;;;;;;;13.20;70.84;99852.45;1661823;86;21039;-76
2022/06/16 03:22:56;;;;;;;7.45;3.05;;;;;;;13.26;70.77;99856.14;1661191;86;21167;-76
2022/06/16 03:25:22;;;;;;;7.03;3.22;;;;;;;13.31;70.63;99858.14;1661461;86;21102;-75
2022/06/16 03:27:50;;;;;;;6.53;2.98;;;;;;;13.37;70.56;99850.00;1638219;86;21083;-75
2022/06/16 03:30:18;;;;;;;9.00;3.17;;;;;;;13.45;70.41;99850.14;1638128;86;21630;-75
2022/06/16 03:32:44;;;;;;;7.03;2.75;;;;;;;13.53;69.81;99854.66;1661608;86;21147;-75
2022/06/16 03:35:11;;;;;;;6.42;2.90;;;;;;;13.57;69.26;99847.02;1661787;85;21222;-75
2022/06/16 03:37:40;;;;;;;9.13;3.00;;;;;;;13.62;69.09;99854.29;1665305;86;21090;-75
2022/06/16 03:40:09;;;;;;;4.90;2.90;;;;;;;13.67;68.51;99849.67;1664722;86;21618;-75
2022/06/16 03:42:36;;;;;;;5.10;2.80;;;;;;;13.72;68.65;99863.55;1664946;86;21135;-75
2022/06/16 03:45:04;;;;;;;3.72;2.47;;;;;;;13.77;68.26;99850.59;1664701;86;21103;-75
2022/06/16 03:47:32;;;;;;;8.33;2.90;;;;;;;13.84;68.56;99855.56;1664923;86;21877;-75
2022/06/16 03:50:00;;;;;;;8.90;2.90;;;;;;;13.94;68.26;99861.33;1671284;84;21331;-75
2022/06/16 03:52:29;;;;;;;6.85;3.00;;;;;;;14.01;67.36;99856.16;1692850;84;22014;-75
2022/06/16 03:54:55;;;;;;;3.92;3.10;;;;;;;14.07;67.42;99850.61;1693332;84;21681;-75
2022/06/16 03:57:22;;;;;;;7.80;3.10;;;;;;;14.14;67.08;99852.52;1692842;84;21138;-75
2022/06/16 03:59:49;;;;;;;3.77;3.35;;;;;;;14.22;67.42;99853.48;1693089;84;21567;-76
2022/06/16 04:02:27;;;;;;;5.37;3.20;;;;;;;14.30;67.15;99857.51;1671863;84;21078;-74
2022/06/16 04:04:53;;;;;;;9.10;3.22;;;;;;;14.37;66.00;99851.95;1693276;84;21016;-75
2022/06/16 04:07:21;;;;;;;7.70;3.55;;;;;;;14.39;65.82;99850.97;1692956;84;21934;-75
2022/06/16 04:10:06;;;;;;;4.35;2.90;;;;;;;14.42;65.42;99856.58;1692739;84;21598;-75
2022/06/16 04:12:33;;;;;;;3.75;2.83;;;;;;;14.45;65.67;99855.97;1692850;84;21876;-76
2022/06/16 04:15:01;;;;;;;4.53;2.87;;;;;;;14.53;65.23;99857.43;1693111;84;21496;-76
2022/06/16 04:17:29;;;;;;;6.85;3.00;;;;;;;14.60;65.20;99861.54;1688864;84;21102;-75
2022/06/16 04:20:14;;;;;;;4.78;2.92;;;;;;;14.67;65.05;99860.32;1692859;84;21016;-75
2022/06/16 04:22:45;;;;;;;8.58;2.70;;;;;;;14.77;64.89;99862.94;1687481;84;22106;-76
2022/06/16 04:25:15;;;;;;;4.58;3.60;;;;;;;14.89;64.80;99860.17;1665888;84;21559;-76
2022/06/16 04:27:42;;;;;;;4.85;3.62;;;;;;;14.99;64.26;99860.13;1693253;84;21091;-75
2022/06/16 04:30:12;;;;;;;6.17;3.52;;;;;;;15.11;64.11;99865.31;1692830;84;21091;-75
2022/06/16 04:32:39;;;;;;;8.48;3.30;;;;;;;15.22;63.95;99868.32;1692949;84;21170;-76
2022/06/16 04:35:09;;;;;;;6.92;2.72;;;;;;;15.34;64.26;99862.04;1692775;84;21119;-76
2022/06/16 04:37:50;;;;;;;7.62;3.27;;;;;;;15.47;63.56;99857.00;1692160;84;21489;-76
2022/06/16 04:40:16;;;;;;;12.28;2.95;;;;;;;15.60;62.65;99861.62;1692986;84;21131;-76
2022/06/16 04:42:43;;;;;;;9.40;3.40;;;;;;;15.70;61.92;99855.83;1692765;84;21075;-75
2022/06/16 04:45:11;;;;;;;10.53;2.87;;;;;;;15.77;61.69;99853.31;1692883;84;21020;-76
2022/06/16 04:47:38;;;;;;;3.95;2.90;;;;;;;15.87;60.94;99859.87;1692990;84;21492;-75
2022/06/16 04:50:07;;;;;;;5.40;2.90;;;;;;;15.93;60.19;99865.31;1688901;84;21158;-76
2022/06/16 04:52:36;;;;;;;9.48;3.37;;;;;;;15.98;60.08;99865.46;1692886;84;21071;-75
2022/06/16 04:55:04;;;;;;;7.65;3.60;;;;;;;16.05;60.18;99865.16;1693061;84;21087;-76
2022/06/16 04:57:40;;;;;;;10.23;3.72;;;;;;;16.13;60.05;99865.63;1692768;84;21159;-76
2022/06/16 05:00:15;;;;;;;9.83;3.45;;;;;;;16.23;60.10;99866.85;1693242;84;21198;-75
2022/06/16 05:02:46;;;;;;;7.40;3.60;;;;;;;16.31;59.76;99855.36;1692960;84;21147;-76
2022/06/16 05:05:20;;;;;;;7.22;3.37;;;;;;;16.41;60.04;99861.50;1692034;84;21751;-75
2022/06/16 05:07:53;;;;;;;7.95;2.90;;;;;;;16.51;59.36;99864.08;1678008;84;21103;-76
2022/06/16 05:10:26;;;;;;;7.25;3.40;;;;;;;16.62;58.29;99859.50;1692826;84;21060;-76
2022/06/16 05:13:11;;;;;;;5.15;2.95;;;;;;;16.75;58.29;99859.70;1684317;84;21134;-75
2022/06/16 05:15:39;;;;;;;10.95;2.70;;;;;;;16.90;57.39;99866.86;1679057;85;21856;-76
2022/06/16 05:18:13;;;;;;;10.88;2.17;;;;;;;17.03;56.79;99864.36;1679209;85;21106;-76
2022/06/16 05:21:09;;;;;;;10.45;2.60;;;;;;;17.16;57.08;99872.52;1678389;85;21074;-76
2022/06/16 05:23:40;;;;;;;5.65;2.40;;;;;;;17.27;56.60;99867.45;1678814;85;21593;-76
2022/06/16 05:26:08;;;;;;;9.15;2.58;;;;;;;17.36;56.21;99864.26;1678773;85;21612;-75
2022/06/16 05:28:36;;;;;;;13.98;2.75;;;;;;;17.46;56.03;99866.77;1677797;85;21155;-76
2022/06/16 05:31:23;;;;;;;4.70;2.40;;;;;;;17.58;55.63;99870.52;1649004;86;21309;-76
2022/06/16 05:33:58;;;;;;;3.92;2.00;;;;;;;17.68;54.68;99873.99;1649378;86;21040;-75
2022/06/16 05:36:32;;;;;;;2.98;2.10;;;;;;;17.76;54.01;99872.59;1662279;84;21059;-77
2022/06/16 05:39:03;;;;;;;12.45;2.33;;;;;;;17.85;53.93;99869.02;1681652;85;21451;-76
2022/06/16 05:41:37;;;;;;;2.10;1.67;;;;;;;17.94;53.70;99864.52;1653206;85;21360;-75
2022/06/16 05:44:08;;;;;;;6.10;1.80;;;;;;;18.03;52.19;99865.28;1681890;85;22051;-76
2022/06/16 05:46:52;;;;;;;;;;;;;;;18.10;52.46;99865.29;1626475;87;21452;-76
2022/06/16 05:49:21;;;;;;;3.62;1.85;;;;;;;18.23;52.43;99865.90;1662061;85;20167;-76
2022/06/16 05:51:50;;;;;;;6.12;1.90;;;;;;;18.31;52.19;99867.62;1679579;84;20992;-76
2022/06/16 05:54:18;;;;;;;11.80;2.30;;;;;;;18.39;51.89;99870.64;1669410;85;21118;-76
2022/06/16 05:56:46;;;;;;;2.27;1.62;;;;;;;18.46;51.32;99869.34;1668734;86;21106;-76
2022/06/16 05:59:14;;;;;;;2.90;1.45;;;;;;;18.54;50.04;99877.72;1668528;86;21141;-76
2022/06/16 06:01:45;;;;;;;12.47;2.20;;;;;;;18.54;49.42;99872.39;1668991;85;21066;-75
2022/06/16 06:04:12;;;;;;;4.92;2.00;;;;;;;18.54;49.77;99875.05;1668262;85;21051;-76
2022/06/16 06:06:40;;;;;;;4.50;1.57;;;;;;;18.57;49.72;99874.84;1676404;85;21047;-77
2022/06/16 06:17:26;;;;;;;3.17;1.32;;;;;;;18.83;47.86;99872.41;1668770;85;20210;-76
2022/06/16 06:19:54;;;;;;;3.08;1.15;;;;;;;18.87;48.33;99873.91;1668405;86;21135;-75
2022/06/16 06:22:26;;;;;;;2.45;1.50;;;;;;;18.96;47.95;99871.61;1668541;85;21043;-76
2022/06/16 06:25:11;;;;;;;4.10;2.02;;;;;;;19.04;47.78;99867.49;1668436;86;21573;-75
2022/06/16 06:27:41;;;;;;;1.57;1.17;;;;;;;19.12;47.61;99871.86;1668682;86;21571;-76
2022/06/16 06:30:15;;;;;;;2.45;1.00;;;;;;;19.21;47.47;99877.56;1675707;85;21510;-76
2022/06/16 06:32:42;;;;;;;3.10;1.20;;;;;;;19.31;46.58;99880.00;1668879;86;21135;-76
2022/06/16 06:35:09;;;;;;;3.85;1.62;;;;;;;19.40;46.47;99872.75;1668421;86;20991;-76
2022/06/16 06:37:37;;;;;;;2.52;1.27;;;;;;;19.48;46.21;99866.43;1669702;85;21106;-76
2022/06/16 06:40:06;;;;;;;5.15;1.40;;;;;;;19.57;46.01;99867.62;1676268;85;21110;-76
2022/06/16 06:42:33;;;;;;;3.83;1.27;;;;;;;19.66;47.37;99871.00;1675948;85;21039;-77
2022/06/16 06:45:03;;;;;;;9.68;1.40;;;;;;;19.78;45.89;99876.52;1676144;85;21408;-76
2022/06/16 06:47:31;;;;;;;1.30;1.20;;;;;;;19.83;45.66;99874.39;1675910;85;21011;-76
2022/06/16 06:49:58;;;;;;;5.87;1.55;;;;;;;19.84;45.48;99876.12;1676467;85;21023;-76
2022/06/16 06:52:27;;;;;;;1.82;1.32;;;;;;;19.75;46.08;99870.05;1676002;85;21580;-76
2022/06/16 06:54:54;;;;;;;4.08;1.50;;;;;;;19.80;46.74;99871.47;1676320;85;21557;-76
2022/06/16 06:57:28;;;;;;;3.55;1.95;;;;;;;19.92;46.58;99873.79;1676024;85;21694;-76
2022/06/16 06:59:55;;;;;;;5.62;1.40;;;;;;;20.02;45.71;99869.53;1676352;85;21639;-76
2022/06/16 07:02:22;;;;;;;2.83;1.00;;;;;;;20.08;45.74;99860.72;1675911;85;21611;-76
2022/06/16 07:04:48;;;;;;;2.42;1.20;;;;;;;20.15;44.21;99863.33;1676245;85;21158;-76
2022/06/16 07:07:18;;;;;;;5.75;1.32;;;;;;;20.13;44.75;99863.44;1676300;85;21133;-75
2022/06/16 07:09:46;;;;;;;5.35;1.40;;;;;;;20.14;44.31;99868.29;1676252;85;21026;-76
2022/06/16 07:12:15;;;;;;;2.90;1.27;;;;;;;20.15;44.32;99859.33;1676202;85;21117;-77
2022/06/16 07:14:46;;;;;;;5.10;1.40;;;;;;;20.15;45.21;99864.67;1676359;85;21113;-77
2022/06/16 07:17:13;;;;;;;1.12;0.90;;;;;;;20.15;44.04;99858.84;1676197;85;21604;-77
2022/06/16 07:19:41;;;;;;;2.52;0.95;;;;;;;20.13;43.52;99858.58;1676226;85;21118;-77
2022/06/16 07:22:08;;;;;;;3.95;1.00;;;;;;;20.16;43.64;99855.70;1676663;84;21749;-77
2022/06/16 07:24:35;;;;;;;4.75;1.10;;;;;;;20.22;43.29;99856.14;1685974;84;22045;-76
2022/06/16 07:27:02;;;;;;;4.95;1.12;;;;;;;20.34;43.35;99855.77;1689354;84;21099;-76
2022/06/16 07:29:30;;;;;;;5.90;1.15;;;;;;;20.51;43.50;99852.36;1689210;84;21095;-76
2022/06/16 07:31:58;;;;;;;8.55;1.32;;;;;;;20.69;43.58;99848.91;1689427;84;21084;-76
2022/06/16 07:34:26;;;;;;;2.72;1.10;;;;;;;20.85;42.40;99853.53;1688977;84;21566;-76
2022/06/16 07:36:54;;;;;;;2.95;1.40;;;;;;;20.99;41.85;99848.51;1689161;84;21710;-77
2022/06/16 07:39:21;;;;;;;6.95;1.98;;;;;;;21.11;41.96;99849.44;1675451;84;21135;-76
2022/06/16 07:41:48;;;;;;;2.60;1.32;;;;;;;21.15;41.97;99850.44;1670417;85;21147;-76
2022/06/16 07:44:16;;;;;;;2.50;1.25;;;;;;;21.23;42.21;99852.56;1669687;85;21036;-76
2022/06/16 07:46:44;;;;;;;3.30;1.15;;;;;;;21.36;41.44;99840.45;1670349;85;21184;-76
2022/06/16 07:49:12;;;;;;;5.85;1.42;;;;;;;21.49;41.75;99829.23;1669691;85;21014;-77
2022/06/16 07:51:42;;;;;;;3.05;1.45;;;;;;;21.64;42.53;99839.27;1670259;85;21028;-77
2022/06/16 07:54:14;;;;;;;8.05;1.47;;;;;;;21.72;40.52;99837.36;1669678;85;21502;-76
2022/06/16 07:56:39;;;;;;;4.92;1.70;;;;;;;21.69;40.09;99844.28;1669400;85;21080;-77
2022/06/16 07:59:05;;;;;;;4.62;1.52;;;;;;;21.63;40.11;99847.42;1670256;84;21953;-77
2022/06/16 08:01:32;;;;;;;3.30;1.57;;;;;;;21.58;40.35;99835.70;1669733;85;21689;-76
2022/06/16 08:04:05;;;;;;;1.77;1.30;;;;;;;21.63;39.28;99842.06;1670012;85;21575;-76
2022/06/16 08:06:27;;;;;;;3.08;1.20;;;;;;;21.57;40.40;99838.50;1670134;85;21001;-76
2022/06/16 08:08:54;;;;;;;2.12;1.37;;;;;;;21.52;40.22;99841.05;1669997;84;21975;-77
2022/06/16 08:14:06;;;;;;;1.25;1.02;;;;;;;21.37;39.68;99840.83;1670097;85;21060;-77
2022/06/16 08:16:35;;;;;;;4.37;1.20;;;;;;;21.31;39.64;99842.61;1669661;84;21122;-76
2022/06/16 08:19:03;;;;;;;4.85;0.90;;;;;;;21.36;39.48;99843.13;1670177;84;21127;-77
2022/06/16 08:21:30;;;;;;;4.17;1.10;;;;;;;21.36;38.27;99831.08;1669754;85;21115;-77
2022/06/16 08:23:56;;;;;;;1.60;1.27;;;;;;;21.38;39.53;99825.13;1669830;84;21120;-77
2022/06/16 08:26:23;;;;;;;4.55;1.67;;;;;;;21.54;40.25;99828.05;1670166;85;21151;-76
2022/06/16 08:28:52;;;;;;;6.12;1.22;;;;;;;21.71;39.03;99819.58;1670135;85;21083;-76
2022/06/16 08:31:20;;;;;;;3.70;1.02;;;;;;;21.82;38.43;99824.97;1670237;84;21083;-76
2022/06/16 08:33:48;;;;;;;6.65;1.47;;;;;;;21.80;37.73;99820.19;1670167;85;21711;-77
2022/06/16 08:36:16;;;;;;;6.97;1.30;;;;;;;21.73;38.46;99822.98;1670034;84;21990;-77
2022/06/16 08:38:42;;;;;;;1.95;1.02;;;;;;;21.71;38.37;99822.25;1676571;84;22022;-76
2022/06/16 08:41:12;;;;;;;1.35;0.93;;;;;;;21.67;38.66;99826.11;1692963;84;21075;-77
2022/06/16 08:44:00;;;;;;;5.62;0.95;;;;;;;21.65;38.03;99820.91;1693255;84;21525;-76
2022/06/16 08:46:30;;;;;;;2.80;1.07;;;;;;;21.68;38.92;99821.14;1692015;84;22980;-77
2022/06/16 08:49:22;;;;;;;3.55;0.93;;;;;;;21.75;37.20;99813.00;1693283;84;21149;-77
2022/06/16 08:52:03;;;;;;;1.42;1.00;;;;;;;21.81;37.49;99815.22;1692703;84;21078;-76
2022/06/16 08:54:53;;;;;;;1.50;1.00;;;;;;;21.94;37.81;99822.30;1692942;84;21068;-76
2022/06/16 08:57:53;;;;;;;4.60;1.10;;;;;;;21.99;37.70;99818.77;1692766;84;21079;-77
2022/06/16 09:00:23;;;;;;;5.80;1.02;;;;;;;22.08;37.86;99819.41;1693096;84;21131;-77
2022/06/16 09:02:57;;;;;;;1.50;0.70;;;;;;;22.18;37.88;99828.44;1692401;84;21803;-76
2022/06/16 09:05:42;;;;;;;2.50;0.90;;;;;;;22.12;35.50;99828.91;1691722;84;21072;-76
2022/06/16 09:08:14;;;;;;;2.05;0.90;;;;;;;21.89;35.92;99826.20;1693058;84;21127;-77
2022/06/16 09:10:49;;;;;;;3.37;0.90;;;;;;;21.89;37.31;99815.48;1692966;84;21071;-76
2022/06/16 09:14:00;;;;;;;3.12;0.98;;;;;;;22.06;35.56;99818.69;1693095;84;21543;-76
2022/06/16 09:16:47;;;;;;;3.62;0.80;;;;;;;22.21;37.02;99822.00;1692717;84;21575;-76
2022/06/16 09:19:53;;;;;;;2.87;0.90;;;;;;;22.44;35.25;99820.20;1693104;84;21032;-76
2022/06/16 09:22:51;;;;;;;5.70;1.17;;;;;;;22.42;35.81;99824.84;1693019;84;32535;-76
2022/06/16 09:26:04;;;;;;;3.40;0.90;;;;;;;22.22;36.58;99817.83;1693280;84;21095;-77
2022/06/16 09:28:51;;;;;;;1.47;1.00;;;;;;;22.15;35.81;99817.95;1692538;84;21912;-78
2022/06/16 09:31:38;;;;;;;2.15;0.70;;;;;;;22.17;35.71;99820.52;1688963;84;21072;-77
2022/06/16 09:34:29;;;;;;;1.27;0.70;;;;;;;22.17;35.93;99811.98;1693042;84;21033;-76
2022/06/16 09:37:01;;;;;;;1.77;0.82;;;;;;;22.25;35.48;99812.73;1693421;84;21217;-76
2022/06/16 09:39:34;;;;;;;2.30;0.90;;;;;;;22.26;36.03;99815.30;1692818;84;21803;-76
2022/06/16 09:42:32;;;;;;;1.67;0.80;;;;;;;22.37;36.72;99812.28;1698627;84;21024;-77
2022/06/16 09:45:26;;;;;;;1.98;0.80;;;;;;;22.49;35.04;99813.98;1697991;84;21172;-76
2022/06/16 09:48:04;;;;;;;1.35;0.70;;;;;;;22.60;36.62;99808.62;1695660;84;21104;-77
2022/06/16 09:50:43;;;;;;;3.12;0.75;;;;;;;22.86;34.81;99816.88;1668346;84;21055;-76
2022/06/16 09:53:18;;;;;;;1.42;0.75;;;;;;;22.89;34.21;99813.45;1693741;84;21114;-76
2022/06/16 09:55:56;;;;;;;5.03;0.90;;;;;;;22.91;35.33;99816.86;1698067;84;21658;-77
2022/06/16 09:58:33;;;;;;;4.58;1.17;;;;;;;22.98;35.50;99811.37;1698880;84;21151;-76
2022/06/16 10:01:08;;;;;;;2.15;0.80;;;;;;;23.08;35.50;99822.72;1698391;84;21067;-76
2022/06/16 10:03:49;;;;;;;5.05;0.90;;;;;;;23.13;34.95;99823.19;1698616;84;21503;-76
2022/06/16 10:06:57;;;;;;;4.05;0.80;;;;;;;23.08;33.99;99820.03;1697969;84;21020;-77
2022/06/16 10:09:40;;;;;;;1.37;0.85;;;;;;;23.07;33.63;99816.51;1641328;87;21559;-77
2022/06/16 10:12:40;;;;;;;2.98;0.90;;;;;;;23.13;34.91;99816.48;1694887;84;21156;-77
2022/06/16 10:15:22;;;;;;;5.28;1.10;;;;;;;23.27;34.61;99813.52;1698233;84;21028;-77
2022/06/16 10:17:51;;;;;;;3.12;1.00;;;;;;;23.42;34.63;99813.20;1698433;84;21091;-76
2022/06/16 10:20:19;;;;;;;6.50;0.70;;;;;;;23.49;34.32;99815.77;1698329;84;21064;-77
2022/06/16 10:22:51;;;;;;;1.27;0.70;;;;;;;23.44;33.20;99805.90;1698207;84;21626;-76
2022/06/16 10:25:26;;;;;;;4.33;1.67;;;;;;;23.44;34.27;99813.95;1698435;84;21134;-77
2022/06/16 10:27:59;;;;;;;3.65;1.10;;;;;;;23.52;34.14;99804.77;1698156;84;21145;-77
2022/06/16 10:30:38;;;;;;;2.62;0.80;;;;;;;23.61;33.65;99799.10;1698381;84;21656;-76
2022/06/16 10:33:20;;;;;;;1.00;0.70;;;;;;;23.77;34.49;99788.77;1698181;84;21725;-77
2022/06/16 10:36:05;;;;;;;1.77;0.78;;;;;;;23.97;32.04;99797.80;1698603;84;21094;-77
2022/06/16 10:38:43;;;;;;;2.77;0.80;;;;;;;24.08;31.70;99795.55;1695532;84;21858;-77
2022/06/16 10:41:30;;;;;;;2.60;0.78;;;;;;;24.24;32.29;99787.86;1698119;84;21174;-77
2022/06/16 10:43:59;;;;;;;1.25;0.60;;;;;;;24.42;32.47;99784.02;1698252;84;21659;-76
2022/06/16 10:46:33;;;;;;;2.00;0.78;;;;;;;24.57;31.53;99778.31;1698227;84;22076;-76
2022/06/16 10:49:04;;;;;;;0.93;0.80;;;;;;;24.67;31.41;99777.84;1698072;84;21127;-76
2022/06/16 10:51:34;;;;;;;1.55;0.75;;;;;;;24.79;31.76;99774.04;1698675;84;21458;-76
2022/06/16 10:54:13;;;;;;;1.35;0.70;;;;;;;24.89;31.12;99766.50;1698154;84;21074;-77
2022/06/16 10:56:40;;;;;;;3.58;0.75;;;;;;;24.95;30.37;99780.25;1672490;84;21617;-77
2022/06/16 10:59:26;;;;;;;3.58;0.78;;;;;;;24.83;30.76;99782.21;1698385;84;21163;-77
2022/06/16 11:02:00;;;;;;;2.55;0.78;;;;;;;24.81;30.91;99777.47;1697961;84;21122;-77
2022/06/16 11:04:38;;;;;;;3.40;0.72;;;;;;;25.01;31.34;99776.14;1696930;84;21128;-77
2022/06/16 11:07:04;;;;;;;1.07;0.68;;;;;;;25.24;30.28;99779.42;1698293;84;21064;-77
2022/06/16 11:09:34;;;;;;;1.98;0.68;;;;;;;25.39;29.74;99774.50;1698319;84;21019;-77
2022/06/16 11:12:06;;;;;;;0.72;0.60;;;;;;;25.55;29.51;99772.09;1695845;84;21028;-77
2022/06/16 11:14:38;;;;;;;1.15;0.60;;;;;;;25.67;26.80;99786.73;1696529;84;21032;-78
2022/06/16 11:17:30;;;;;;;1.67;0.42;;;;;;;25.43;27.34;99779.94;1698602;84;21229;-77
2022/06/16 11:20:03;;;;;;;1.42;0.60;;;;;;;25.13;26.58;99777.73;1698169;84;21653;-77
2022/06/16 11:22:39;;;;;;;0.70;0.45;;;;;;;25.02;27.96;99777.34;1694296;84;21139;-78
2022/06/16 11:25:21;;;;;;;4.87;0.60;;;;;;;25.14;27.73;99764.60;1698541;84;21102;-77
2022/06/16 11:28:02;;;;;;;3.62;0.45;;;;;;;25.39;27.61;99765.91;1698457;84;21111;-75
2022/06/16 11:30:51;;;;;;;1.07;0.60;;;;;;;25.54;27.64;99774.41;1698055;84;21572;-77
2022/06/16 11:36:46;;;;;;;1.05;0.50;;;;;;;25.43;29.12;99762.43;1698199;84;21036;-77
2022/06/16 11:39:44;;;;;;;1.42;0.62;;;;;;;25.62;28.32;99755.33;1697377;84;21519;-78
2022/06/16 11:42:49;;;;;;;2.52;0.42;;;;;;;25.64;27.53;99758.72;1693189;84;21666;-77
2022/06/16 11:45:39;;;;;;;1.82;0.70;;;;;;;25.63;27.33;99765.13;1688690;84;21142;-78
2022/06/16 11:48:39;;;;;;;1.42;0.53;;;;;;;25.56;28.06;99749.52;1693211;84;21005;-78
2022/06/16 11:51:48;;;;;;;1.65;0.70;;;;;;;25.70;27.89;99754.11;1689082;84;21095;-77
2022/06/16 11:54:35;;;;;;;3.27;0.80;;;;;;;25.71;29.08;99751.78;1685844;84;21027;-77
2022/06/16 11:57:47;;;;;;;9.88;0.78;;;;;;;25.61;29.40;99752.30;1692811;84;21129;-78
2022/06/16 12:00:25;;;;;;;4.78;0.50;;;;;;;25.70;28.78;99760.34;1692835;84;21221;-78
2022/06/16 12:03:38;;;;;;;6.05;0.60;;;;;;;25.52;27.48;99757.55;1693266;84;21113;-77
2022/06/16 12:06:32;;;;;;;4.00;0.53;;;;;;;25.29;26.66;99757.49;1692952;84;21030;-77
2022/06/16 12:09:04;;;;;;;3.70;0.80;;;;;;;25.13;27.28;99748.11;1693461;84;21993;-78
2022/06/16 12:12:08;;;;;;;3.80;0.80;;;;;;;25.22;27.62;99751.80;1664404;84;21061;-77
2022/06/16 12:14:49;;;;;;;3.08;0.60;;;;;;;25.26;27.61;99746.97;1693024;84;21245;-77
2022/06/16 12:17:26;;;;;;;2.70;0.50;;;;;;;25.32;28.21;99746.44;1693007;84;21491;-76
2022/06/16 12:20:25;;;;;;;1.02;0.50;;;;;;;25.50;28.52;99747.42;1693133;84;21007;-76
2022/06/16 12:23:03;;;;;;;3.02;0.75;;;;;;;25.64;26.33;99749.28;1692801;84;21064;-76
2022/06/16 12:25:47;;;;;;;2.67;0.40;;;;;;;25.57;26.64;99736.41;1693155;84;21102;-76
2022/06/16 12:28:25;;;;;;;1.12;0.47;;;;;;;25.67;25.58;99735.53;1693277;84;21169;-77
2022/06/16 12:31:17;;;;;;;2.42;0.40;;;;;;;25.70;25.77;99735.24;1692963;84;21637;-77
2022/06/16 12:33:55;;;;;;;1.40;0.80;;;;;;;25.80;26.98;99734.72;1603389;89;21158;-77